Aérodrome :
LOGIN :

S'inscrire | Disclaimer

   EN    FR    IT 

 










Légende :    VFR   VFR Marginal   IFR   IFR Intensif   IFR Très Intensif
Visi : 
Plafond : 
>= 8 km
>= 3000ft
5 à 8 km
1000 à 3000 ft
1500m à 5 km
500 à 1000 ft
800 à 1500m
200 à 500 ft
< 800m
< 200 ft
Symboles :   Orages  Brouillard  Fortes neiges  Fortes précipitations  Vent > 20 kt
SIGMETs :   Divers  Orages  Givrage  Turbulence  Onde Orograph.  Cendres Volcan.







- Altitude de l'aérodrome : 194 ft
- Code IATA : LME
- Voir les cartes d'approche


LFRM - Le Mans

DERNIER METAR :
  • 171700Z AUTO 24009KT 200V290 6000 -RA SCT012/// SCT024/// BKN048/// ///TCU 21/20 Q1017 TEMPO 3000 -RADZ BKN007 OVC013

METARs EXPIRÉS :
  • 171630Z AUTO 22007KT 190V250 9999 SCT026/// BKN031/// BKN039/// ///TCU 23/20 Q1016 TEMPO 3000 -RADZ BKN007 OVC013
  • 171600Z AUTO 25006KT 220V290 9999 BKN022/// BKN032/// BKN058/// ///CB 24/20 Q1016 TEMPO 3000 -RADZ BKN007 OVC013
  • 171530Z AUTO 26005KT 210V300 9999 SCT029/// BKN038/// BKN045/// ///CB 23/21 Q1016 TEMPO 3000 -RADZ BKN007 OVC013
  • 171500Z AUTO 28006KT 240V320 9999 BKN017/// BKN023/// BKN029/// ///CB 23/21 Q1017 TEMPO 3000 -RADZ BKN007 OVC013
  • 171430Z AUTO 22005KT 170V280 9999 +RA SCT018/// BKN032/// BKN044/// ///CB 23/20 Q1017 TEMPO 3000 -RADZ BKN007 OVC013

TAF TAF LFRM
Valide du 17 à 15h jusqu'au 18 à 00h UTC


171400Z 1715/1724 21006KT 9999 BKN017 OVC022
TEMPO 1715/1724 3000 -RADZ BKN007 OVC013
BECMG 1716/1718 BKN014 OVC020
Pas de NOTAMs connus pour ce terrain.



MET'MAP, la Météo Aéronautique d'un coup d'oeil ! - Copyright ORBIFLY Décembre 2007 - Disclaimer

ORBIFLY MET'MAP TEAM :

Programmation & Développement : Alexandra Zaïnal
Conception & Développement : Baudouin d'Aumeries
Co-Programmation & Développement : Marc-Olivier Méhu
Soutien technique & logistique : Manuel Goepfert

Contact : metmap@orbifly.com




SOURCES & CREDITS :

   NOAA